createdAt,value
2018-02-27T00:02:13.450Z,67.90
2018-02-27T00:04:41.819Z,67.23
2018-02-27T00:07:10.161Z,67.21
2018-02-27T00:09:38.488Z,67.44
2018-02-27T00:12:07.417Z,66.96
2018-02-27T00:14:35.824Z,66.53
2018-02-27T00:17:04.129Z,67.00
2018-02-27T00:19:32.531Z,66.69
2018-02-27T00:22:00.905Z,66.82
2018-02-27T00:24:29.248Z,67.15
2018-02-27T00:26:57.601Z,66.90
2018-02-27T00:29:26.094Z,66.87
2018-02-27T00:31:54.453Z,66.19
2018-02-27T00:34:23.502Z,66.77
2018-02-27T00:36:51.817Z,66.49
2018-02-27T00:39:20.230Z,66.33
2018-02-27T00:41:48.572Z,66.50
2018-02-27T00:44:16.916Z,66.85
2018-02-27T00:46:45.305Z,66.46
2018-02-27T00:49:13.671Z,66.99
2018-02-27T00:51:42.014Z,66.77
2018-02-27T00:54:10.569Z,66.92
2018-02-27T00:56:39.200Z,66.81
2018-02-27T00:59:07.622Z,66.81
2018-02-27T01:01:36.038Z,67.18
2018-02-27T01:04:04.391Z,67.15
2018-02-27T01:06:32.767Z,66.97
2018-02-27T01:09:01.144Z,67.40
2018-02-27T01:11:29.550Z,67.48
2018-02-27T01:13:57.890Z,67.81
2018-02-27T01:16:26.234Z,67.65
2018-02-27T01:18:54.749Z,67.54
2018-02-27T01:21:23.126Z,68.08
2018-02-27T01:23:51.463Z,68.46
2018-02-27T01:26:19.818Z,68.25
2018-02-27T01:28:48.122Z,68.08
2018-02-27T01:31:16.471Z,68.52
2018-02-27T01:33:45.600Z,68.45
2018-02-27T01:36:13.949Z,68.39
2018-02-27T01:38:42.297Z,68.03
2018-02-27T01:41:11.111Z,68.26
2018-02-27T01:43:40.216Z,67.53
2018-02-27T01:46:08.538Z,67.37
2018-02-27T01:48:36.902Z,67.46
2018-02-27T01:51:14.973Z,67.42
2018-02-27T01:53:44.108Z,67.34
2018-02-27T01:56:12.445Z,67.08
2018-02-27T01:58:41.551Z,67.91
2018-02-27T02:01:10.231Z,68.15
2018-02-27T02:03:39.322Z,67.78
2018-02-27T02:06:07.629Z,67.80
2018-02-27T02:08:35.960Z,68.03
2018-02-27T02:11:04.304Z,67.36
2018-02-27T02:13:32.636Z,67.10
2018-02-27T02:16:01.764Z,66.85
2018-02-27T02:18:30.552Z,66.84
2018-02-27T02:20:58.902Z,67.06
2018-02-27T02:23:28.083Z,66.62
2018-02-27T02:25:56.398Z,66.73
2018-02-27T02:28:24.727Z,66.12
2018-02-27T02:30:53.061Z,65.92
2018-02-27T02:33:21.464Z,66.79
2018-02-27T02:35:49.785Z,65.96
2018-02-27T02:38:18.946Z,65.99
2018-02-27T02:40:47.284Z,65.64
2018-02-27T02:43:15.593Z,65.99
2018-02-27T02:45:44.283Z,65.87
2018-02-27T02:48:12.608Z,66.09
2018-02-27T02:50:41.683Z,66.93
2018-02-27T02:53:10.009Z,66.89
2018-02-27T02:55:38.313Z,66.87
2018-02-27T02:58:06.621Z,67.06
2018-02-27T03:00:35.706Z,66.61
2018-02-27T03:03:04.012Z,66.50
2018-02-27T03:05:32.346Z,66.11
2018-02-27T03:08:01.071Z,65.96
2018-02-27T03:10:30.139Z,66.43
2018-02-27T03:12:58.486Z,66.41
2018-02-27T03:15:26.807Z,67.56
2018-02-27T03:17:55.170Z,66.67
2018-02-27T03:20:23.480Z,66.33
2018-02-27T03:22:52.590Z,65.29
2018-02-27T03:25:21.260Z,65.97
2018-02-27T03:27:50.382Z,66.06
2018-02-27T03:30:19.021Z,66.11
2018-02-27T03:32:48.116Z,66.60
2018-02-27T03:35:16.409Z,66.54
2018-02-27T03:37:46.008Z,66.12
2018-02-27T03:40:14.540Z,66.79
2018-02-27T03:42:42.868Z,66.25
2018-02-27T03:45:11.242Z,66.16
2018-02-27T03:47:39.570Z,66.41
2018-02-27T03:50:07.889Z,65.92
2018-02-27T03:52:36.380Z,66.59
2018-02-27T03:55:04.681Z,66.83
2018-02-27T03:57:33.775Z,66.40
2018-02-27T04:00:03.002Z,66.32
2018-02-27T04:02:31.307Z,66.24
2018-02-27T04:04:59.601Z,66.37
2018-02-27T04:07:27.930Z,66.20
2018-02-27T04:09:56.245Z,65.75
2018-02-27T04:12:24.547Z,65.54
2018-02-27T04:14:53.098Z,66.03
2018-02-27T04:17:21.431Z,66.00
2018-02-27T04:19:50.780Z,66.00
2018-02-27T04:22:19.141Z,65.43
2018-02-27T04:24:47.459Z,65.00
2018-02-27T04:27:15.832Z,65.75
2018-02-27T04:29:44.288Z,65.69
2018-02-27T04:32:12.701Z,65.36
2018-02-27T04:34:41.189Z,65.09
2018-02-27T04:37:10.690Z,66.12
2018-02-27T04:39:39.168Z,66.65
2018-02-27T04:42:07.557Z,67.12
2018-02-27T04:44:35.931Z,67.65
2018-02-27T04:47:04.311Z,68.19
2018-02-27T04:49:32.689Z,68.57
2018-02-27T04:52:01.122Z,67.24
2018-02-27T04:54:29.518Z,68.38
2018-02-27T04:56:58.025Z,68.07
2018-02-27T04:59:26.818Z,67.74
2018-02-27T05:01:55.193Z,66.84
2018-02-27T05:04:23.581Z,66.17
2018-02-27T05:06:51.992Z,67.19
2018-02-27T05:09:21.199Z,67.73
2018-02-27T05:11:49.601Z,67.54
2018-02-27T05:14:17.980Z,67.34
2018-02-27T05:16:46.395Z,67.91
2018-02-27T05:19:14.716Z,66.90
2018-02-27T05:21:44.859Z,67.21
2018-02-27T05:24:13.288Z,67.56
2018-02-27T05:26:41.652Z,68.25
2018-02-27T05:29:10.140Z,67.68
2018-02-27T05:31:38.625Z,67.99
2018-02-27T05:34:06.931Z,67.96
2018-02-27T05:36:35.481Z,67.33
2018-02-27T05:39:03.962Z,67.77
2018-02-27T05:41:32.338Z,67.37
2018-02-27T05:44:01.157Z,67.86
2018-02-27T05:46:30.320Z,67.82
2018-02-27T05:48:58.754Z,67.73
2018-02-27T05:51:27.194Z,67.95
2018-02-27T05:53:55.584Z,67.55
2018-02-27T05:56:24.052Z,67.64
2018-02-27T05:58:52.601Z,67.78
2018-02-27T06:01:20.985Z,67.93
2018-02-27T06:03:49.394Z,68.04
2018-02-27T06:06:18.132Z,68.52
2018-02-27T06:08:46.496Z,68.36
2018-02-27T06:11:15.658Z,68.14
2018-02-27T06:13:44.935Z,68.26
2018-02-27T06:16:13.449Z,67.96
2018-02-27T06:18:41.899Z,67.67
2018-02-27T06:21:10.404Z,67.78
2018-02-27T06:23:38.991Z,67.73
2018-02-27T06:26:07.306Z,68.13
2018-02-27T06:28:35.807Z,67.82
2018-02-27T06:31:04.201Z,68.12
2018-02-27T06:33:32.546Z,66.90
2018-02-27T06:36:00.898Z,67.20
2018-02-27T06:38:29.232Z,67.41
2018-02-27T06:40:57.537Z,67.63
2018-02-27T06:43:25.880Z,66.82
2018-02-27T06:45:54.191Z,66.96
2018-02-27T06:48:22.520Z,65.21
2018-02-27T06:50:52.108Z,62.19
2018-02-27T06:53:20.415Z,59.78
2018-02-27T06:55:48.729Z,56.86
2018-02-27T06:58:17.061Z,54.48
2018-02-27T07:00:45.374Z,51.98
2018-02-27T07:03:13.688Z,50.13
2018-02-27T07:05:42.007Z,51.03
2018-02-27T07:08:10.313Z,51.54
2018-02-27T07:10:38.626Z,51.62
2018-02-27T07:13:08.037Z,49.22
2018-02-27T07:15:37.129Z,46.50
2018-02-27T07:18:05.447Z,44.27
2018-02-27T07:20:33.819Z,42.56
2018-02-27T07:23:02.123Z,40.22
2018-02-27T07:25:30.466Z,38.74
2018-02-27T07:27:58.823Z,37.68
2018-02-27T07:30:27.912Z,37.22
2018-02-27T07:32:57.007Z,38.82
2018-02-27T07:35:26.270Z,40.74
2018-02-27T07:37:54.627Z,38.70
2018-02-27T07:40:22.956Z,38.67
2018-02-27T07:42:51.318Z,36.67
2018-02-27T07:45:19.628Z,36.50
2018-02-27T07:47:47.960Z,35.40
2018-02-27T07:50:16.317Z,34.10
2018-02-27T07:52:44.643Z,32.56
2018-02-27T07:55:12.936Z,32.63
2018-02-27T07:57:42.212Z,31.97
2018-02-27T08:00:10.519Z,31.02
2018-02-27T08:02:39.601Z,31.12
2018-02-27T08:05:07.974Z,30.52
2018-02-27T08:07:36.299Z,31.06
2018-02-27T08:10:04.650Z,35.18
2018-02-27T08:12:32.985Z,39.35
2018-02-27T08:15:01.312Z,42.71
2018-02-27T08:17:29.613Z,42.09
2018-02-27T08:19:59.279Z,44.24
2018-02-27T08:22:27.588Z,44.31
2018-02-27T08:24:55.917Z,42.73
2018-02-27T08:27:24.279Z,40.54
2018-02-27T08:29:52.600Z,39.64
2018-02-27T08:32:20.951Z,36.87
2018-02-27T08:34:49.315Z,35.25
2018-02-27T08:37:17.629Z,33.16
2018-02-27T08:39:45.945Z,29.71
2018-02-27T08:42:14.379Z,30.50
2018-02-27T08:44:42.699Z,31.37
2018-02-27T08:47:11.052Z,35.43
2018-02-27T08:49:40.164Z,37.60
2018-02-27T08:52:09.256Z,36.24
2018-02-27T08:54:38.361Z,32.91
2018-02-27T08:57:07.480Z,30.01
2018-02-27T08:59:35.800Z,29.02
2018-02-27T09:02:04.121Z,26.61
2018-02-27T09:04:32.758Z,26.35
2018-02-27T09:07:01.077Z,26.73
2018-02-27T09:09:29.436Z,30.85
2018-02-27T09:11:58.537Z,33.71
2018-02-27T09:14:27.637Z,36.41
2018-02-27T09:16:56.706Z,38.00
2018-02-27T09:19:25.046Z,41.76
2018-02-27T09:21:53.364Z,43.86
2018-02-27T09:24:21.727Z,44.53
2018-02-27T09:26:50.549Z,45.12
2018-02-27T09:29:19.637Z,45.47
2018-02-27T09:31:47.955Z,45.89
2018-02-27T09:34:16.318Z,47.08
2018-02-27T09:36:45.388Z,46.02
2018-02-27T09:39:13.683Z,43.59
2018-02-27T09:41:42.792Z,44.01
2018-02-27T09:44:11.126Z,44.93
2018-02-27T09:46:39.461Z,46.73
2018-02-27T09:49:08.135Z,48.48
2018-02-27T09:51:36.416Z,49.09
2018-02-27T09:54:05.631Z,46.06
2018-02-27T09:56:33.978Z,43.53
2018-02-27T09:59:02.279Z,35.67
2018-02-27T10:01:30.576Z,30.31
2018-02-27T10:03:58.936Z,29.60
2018-02-27T10:06:27.230Z,30.79
2018-02-27T10:08:55.573Z,30.70
2018-02-27T10:11:24.878Z,34.14
2018-02-27T10:13:53.184Z,36.08
2018-02-27T10:16:21.530Z,34.76
2018-02-27T10:18:50.613Z,34.65
2018-02-27T10:21:19.678Z,33.52
2018-02-27T10:23:48.565Z,35.14
2018-02-27T10:26:16.904Z,36.76
2018-02-27T10:28:45.233Z,37.04
2018-02-27T10:31:13.546Z,37.77
2018-02-27T10:33:43.237Z,36.48
2018-02-27T10:36:11.575Z,37.18
2018-02-27T10:38:39.887Z,35.71
2018-02-27T10:41:08.223Z,35.35
2018-02-27T10:43:36.576Z,37.62
2018-02-27T10:46:04.878Z,39.05
2018-02-27T10:48:33.213Z,41.74
2018-02-27T10:51:02.304Z,42.34
2018-02-27T10:53:31.391Z,44.01
2018-02-27T10:56:01.194Z,44.56
2018-02-27T10:58:29.512Z,42.64
2018-02-27T11:00:57.818Z,40.99
2018-02-27T11:03:26.279Z,36.85
2018-02-27T11:05:54.620Z,37.31
2018-02-27T11:08:22.923Z,34.48
2018-02-27T11:10:52.029Z,34.04
2018-02-27T11:13:20.434Z,37.34
2018-02-27T11:15:48.739Z,41.10
2018-02-27T11:18:17.389Z,45.29
2018-02-27T11:20:45.717Z,49.25
2018-02-27T11:23:14.067Z,51.60
2018-02-27T11:25:42.401Z,51.77
2018-02-27T11:28:10.717Z,53.31
2018-02-27T11:30:39.014Z,52.34
2018-02-27T11:33:07.346Z,51.10
2018-02-27T11:35:36.412Z,52.37
2018-02-27T11:38:04.711Z,50.47
2018-02-27T11:40:34.096Z,51.43
2018-02-27T11:43:02.432Z,50.94
2018-02-27T11:45:30.738Z,51.41
2018-02-27T11:47:59.084Z,52.37
2018-02-27T11:50:27.672Z,52.43
2018-02-27T11:52:56.015Z,53.66
2018-02-27T11:55:25.124Z,54.43
2018-02-27T11:57:53.460Z,53.15
2018-02-27T12:00:21.766Z,52.75
2018-02-27T12:02:51.147Z,54.85
2018-02-27T12:05:20.231Z,54.94
2018-02-27T12:07:48.532Z,54.50
2018-02-27T12:10:17.627Z,54.41
2018-02-27T12:12:46.724Z,54.58
2018-02-27T12:15:15.815Z,54.28
2018-02-27T12:17:44.905Z,54.22
2018-02-27T12:20:13.271Z,52.47
2018-02-27T12:22:41.628Z,51.92
2018-02-27T12:25:11.060Z,51.63
2018-02-27T12:27:39.396Z,46.64
2018-02-27T12:30:07.908Z,45.07
2018-02-27T12:32:36.238Z,42.68
2018-02-27T12:35:04.541Z,39.29
2018-02-27T12:37:32.852Z,37.66
2018-02-27T12:40:01.209Z,32.62
2018-02-27T12:42:30.374Z,29.20
2018-02-27T12:44:58.693Z,26.33
2018-02-27T12:47:27.317Z,28.27
2018-02-27T12:49:56.437Z,26.67
2018-02-27T12:52:24.768Z,24.55
2018-02-27T12:54:53.102Z,24.72
2018-02-27T12:57:21.431Z,26.39
2018-02-27T12:59:50.530Z,26.65
2018-02-27T13:02:19.654Z,29.96
2018-02-27T13:04:47.973Z,33.18
2018-02-27T13:07:16.277Z,31.32
2018-02-27T13:09:44.980Z,33.00
2018-02-27T13:12:13.343Z,36.65
2018-02-27T13:14:41.645Z,38.78
2018-02-27T13:17:10.769Z,40.11
2018-02-27T13:19:39.065Z,41.53
2018-02-27T13:22:07.400Z,42.54
2018-02-27T13:24:35.749Z,44.92
2018-02-27T13:27:04.099Z,47.86
2018-02-27T13:29:32.430Z,49.54
2018-02-27T13:32:01.249Z,49.40
2018-02-27T13:34:29.556Z,49.55
2018-02-27T13:36:57.894Z,50.22
2018-02-27T13:39:26.233Z,50.47
2018-02-27T13:41:54.573Z,50.22
2018-02-27T13:44:22.883Z,51.14
2018-02-27T13:46:51.206Z,51.46
2018-02-27T13:49:24.844Z,51.09
2018-02-27T13:51:47.865Z,51.08
2018-02-27T13:54:16.613Z,51.30
2018-02-27T13:56:44.928Z,51.57
2018-02-27T13:59:13.229Z,57.29
2018-02-27T14:01:41.572Z,59.15
2018-02-27T14:04:09.918Z,60.14
2018-02-27T14:06:38.241Z,59.96
2018-02-27T14:09:06.548Z,60.23
2018-02-27T14:11:34.856Z,60.53
2018-02-27T14:14:03.189Z,60.71
2018-02-27T14:16:31.933Z,61.57
2018-02-27T14:19:00.236Z,59.08
2018-02-27T14:21:28.706Z,60.53
2018-02-27T14:23:57.043Z,61.02
2018-02-27T14:26:25.442Z,60.05
2018-02-27T14:28:53.720Z,58.97
2018-02-27T14:31:22.089Z,59.84
2018-02-27T14:33:50.425Z,57.97
2018-02-27T14:36:18.713Z,55.59
2018-02-27T14:38:47.435Z,54.75
2018-02-27T14:41:15.767Z,54.79
2018-02-27T14:43:44.090Z,53.79
2018-02-27T14:46:12.455Z,53.22
2018-02-27T14:48:40.803Z,52.10
2018-02-27T14:51:09.151Z,50.83
2018-02-27T14:53:38.254Z,49.23
2018-02-27T14:56:06.580Z,46.78
2018-02-27T14:58:34.862Z,43.34
2018-02-27T15:01:03.593Z,38.97
2018-02-27T15:03:32.677Z,35.60
2018-02-27T15:06:01.004Z,36.02
2018-02-27T15:08:29.350Z,36.34
2018-02-27T15:10:57.665Z,36.29
2018-02-27T15:13:26.008Z,36.55
2018-02-27T15:15:54.361Z,33.99
2018-02-27T15:18:23.457Z,32.29
2018-02-27T15:20:51.781Z,30.92
2018-02-27T15:23:20.206Z,28.64
2018-02-27T15:25:49.322Z,27.76
2018-02-27T15:28:18.412Z,29.32
2018-02-27T15:30:47.542Z,29.35
2018-02-27T15:33:15.841Z,29.07
2018-02-27T15:35:44.186Z,28.43
2018-02-27T15:38:12.551Z,28.84
2018-02-27T15:40:41.607Z,29.32
2018-02-27T15:43:09.921Z,30.17
2018-02-27T15:45:39.514Z,31.04
2018-02-27T15:48:07.896Z,32.17
2018-02-27T15:50:36.206Z,33.43
2018-02-27T15:53:04.554Z,35.86
2018-02-27T15:55:32.867Z,37.30
2018-02-27T15:58:01.178Z,38.08
2018-02-27T16:00:29.535Z,38.38
2018-02-27T16:02:57.845Z,37.97
2018-02-27T16:05:26.135Z,38.44
2018-02-27T16:07:54.794Z,39.18
2018-02-27T16:10:23.092Z,39.37
2018-02-27T16:12:51.400Z,39.29
2018-02-27T16:15:19.744Z,39.32
2018-02-27T16:17:48.064Z,38.33
2018-02-27T16:20:17.193Z,38.00
2018-02-27T16:22:45.528Z,39.96
2018-02-27T16:25:14.591Z,38.84
2018-02-27T16:27:42.918Z,39.90
2018-02-27T16:30:11.508Z,39.25
2018-02-27T16:32:39.794Z,39.55
2018-02-27T16:35:08.106Z,39.96
2018-02-27T16:37:36.475Z,40.08
2018-02-27T16:40:04.781Z,40.73
2018-02-27T16:42:33.112Z,40.41
2018-02-27T16:45:01.461Z,40.85
2018-02-27T16:47:29.792Z,43.47
2018-02-27T16:49:58.120Z,46.04
2018-02-27T16:52:26.599Z,47.49
2018-02-27T16:54:55.668Z,48.98
2018-02-27T16:57:23.973Z,50.08
2018-02-27T16:59:52.317Z,50.86
2018-02-27T17:02:20.633Z,51.18
2018-02-27T17:04:49.735Z,52.08
2018-02-27T17:07:18.102Z,52.48
2018-02-27T17:09:47.205Z,54.08
2018-02-27T17:12:16.359Z,52.76
2018-02-27T17:14:45.105Z,53.47
2018-02-27T17:17:13.431Z,53.20
2018-02-27T17:22:16.342Z,54.70
2018-02-27T17:24:44.697Z,54.15
2018-02-27T17:27:13.168Z,53.23
2018-02-27T17:29:41.522Z,54.24
2018-02-27T17:32:09.841Z,53.72
2018-02-27T17:34:38.158Z,54.15
2018-02-27T17:37:07.465Z,53.89
2018-02-27T17:39:36.565Z,54.39
2018-02-27T17:42:05.681Z,54.37
2018-02-27T17:44:34.022Z,54.49
2018-02-27T17:47:02.357Z,55.84
2018-02-27T17:49:30.680Z,55.58
2018-02-27T17:51:59.818Z,56.26
2018-02-27T17:54:28.146Z,55.86
2018-02-27T17:56:56.459Z,56.01
2018-02-27T17:59:24.945Z,55.25
2018-02-27T18:01:53.263Z,55.90
2018-02-27T18:04:21.608Z,56.19
2018-02-27T18:06:50.034Z,56.96
2018-02-27T18:09:18.375Z,57.62
2018-02-27T18:11:46.698Z,57.95
2018-02-27T18:14:15.039Z,58.28
2018-02-27T18:16:43.402Z,57.49
2018-02-27T18:19:11.730Z,57.87
2018-02-27T18:21:40.445Z,58.28
2018-02-27T18:24:09.643Z,58.94
2018-02-27T18:26:38.755Z,59.18
2018-02-27T18:29:07.118Z,59.48
2018-02-27T18:31:35.497Z,59.32
2018-02-27T18:34:03.809Z,60.57
2018-02-27T18:36:32.157Z,60.82
2018-02-27T18:39:00.481Z,61.78
2018-02-27T18:41:28.821Z,62.17
2018-02-27T18:43:57.633Z,64.14
2018-02-27T18:46:25.781Z,65.30
2018-02-27T18:48:55.006Z,66.07
2018-02-27T18:51:23.339Z,66.59
2018-02-27T18:53:51.660Z,66.97
2018-02-27T18:56:20.014Z,68.01
2018-02-27T18:58:49.121Z,68.47
2018-02-27T19:01:17.462Z,68.60
2018-02-27T19:03:46.582Z,68.12
2018-02-27T19:06:15.983Z,67.37
2018-02-27T19:08:44.309Z,68.64
2018-02-27T19:11:13.382Z,69.07
2018-02-27T19:13:41.946Z,68.48
2018-02-27T19:16:11.040Z,69.63
2018-02-27T19:18:40.128Z,69.67
2018-02-27T19:21:09.267Z,70.50
2018-02-27T19:23:37.607Z,70.04
2018-02-27T19:26:05.945Z,69.41
2018-02-27T19:28:34.757Z,70.32
2018-02-27T19:31:03.084Z,70.45
2018-02-27T19:33:31.452Z,70.17
2018-02-27T19:35:59.806Z,69.75
2018-02-27T19:38:28.901Z,69.13
2018-02-27T19:40:57.248Z,70.20
2018-02-27T19:43:25.609Z,70.08
2018-02-27T19:45:53.937Z,68.45
2018-02-27T19:48:22.294Z,68.81
2018-02-27T19:50:50.709Z,66.48
2018-02-27T19:53:19.811Z,66.24
2018-02-27T19:55:48.194Z,64.90
2018-02-27T19:58:16.835Z,65.67
2018-02-27T20:00:45.188Z,65.30
2018-02-27T20:03:13.512Z,65.95
2018-02-27T20:05:42.653Z,66.11
2018-02-27T20:08:10.983Z,65.03
2018-02-27T20:10:40.113Z,64.64
2018-02-27T20:13:08.609Z,64.23
2018-02-27T20:15:36.954Z,63.77
2018-02-27T20:18:12.551Z,64.59
2018-02-27T20:20:40.880Z,64.78
2018-02-27T20:23:14.646Z,64.56
2018-02-27T20:25:43.005Z,65.38
2018-02-27T20:31:13.403Z,64.99
2018-02-27T20:33:42.585Z,64.36
2018-02-27T20:36:10.929Z,64.90
2018-02-27T20:38:44.852Z,64.87
2018-02-27T20:41:13.207Z,64.17
2018-02-27T20:43:41.528Z,63.50
2018-02-27T20:46:09.933Z,63.72
2018-02-27T20:48:38.296Z,62.88
2018-02-27T20:51:06.634Z,62.19
2018-02-27T20:53:35.009Z,62.58
2018-02-27T20:56:03.357Z,62.62
2018-02-27T20:58:32.429Z,62.80
2018-02-27T21:01:00.786Z,62.60
2018-02-27T21:03:29.161Z,63.64
2018-02-27T21:05:57.521Z,62.38
2018-02-27T21:08:25.999Z,62.71
2018-02-27T21:10:54.345Z,60.97
2018-02-27T21:13:22.680Z,62.39
2018-02-27T21:15:51.033Z,62.09
2018-02-27T21:18:19.377Z,61.75
2018-02-27T21:20:47.731Z,61.51
2018-02-27T21:23:16.078Z,60.76
2018-02-27T21:25:44.392Z,60.86
2018-02-27T21:28:12.733Z,60.40
2018-02-27T21:30:41.294Z,59.61
2018-02-27T21:33:10.381Z,60.60
2018-02-27T21:35:39.508Z,59.45
2018-02-27T21:38:07.900Z,59.10
2018-02-27T21:40:36.258Z,57.92
2018-02-27T21:43:04.585Z,59.47
2018-02-27T21:45:32.958Z,59.05
2018-02-27T21:48:01.349Z,58.84
2018-02-27T21:50:29.626Z,58.23
2018-02-27T21:52:58.058Z,58.19
2018-02-27T21:55:26.386Z,58.23
2018-02-27T21:57:55.480Z,57.67
2018-02-27T22:00:23.845Z,57.69
2018-02-27T22:02:52.193Z,57.95
2018-02-27T22:05:20.554Z,58.14
2018-02-27T22:07:49.216Z,58.47
2018-02-27T22:10:18.308Z,58.21
2018-02-27T22:12:46.649Z,56.93
2018-02-27T22:15:15.152Z,57.93
2018-02-27T22:17:43.487Z,56.86
2018-02-27T22:20:11.785Z,56.94
2018-02-27T22:22:40.146Z,56.07
2018-02-27T22:25:08.479Z,56.90
2018-02-27T22:27:36.803Z,56.77
2018-02-27T22:30:05.177Z,56.25
2018-02-27T22:32:33.500Z,55.60
2018-02-27T22:35:01.846Z,55.03
2018-02-27T22:37:30.474Z,55.37
2018-02-27T22:39:58.829Z,55.65
2018-02-27T22:42:27.165Z,54.18
2018-02-27T22:44:55.497Z,53.26
2018-02-27T22:47:23.801Z,53.67
2018-02-27T22:49:52.883Z,53.78
2018-02-27T22:52:21.260Z,52.58
2018-02-27T22:54:49.588Z,53.30
2018-02-27T22:57:17.901Z,52.08
2018-02-27T22:59:46.515Z,52.25
2018-02-27T23:02:15.586Z,52.22
2018-02-27T23:04:43.905Z,52.27
2018-02-27T23:07:12.284Z,52.59
2018-02-27T23:09:40.585Z,51.99
2018-02-27T23:12:08.913Z,52.12
2018-02-27T23:14:37.240Z,51.32
2018-02-27T23:17:05.723Z,49.79
2018-02-27T23:19:34.031Z,49.90
2018-02-27T23:22:02.661Z,49.68
2018-02-27T23:24:44.148Z,49.27
2018-02-27T23:27:14.564Z,51.26
2018-02-27T23:29:44.854Z,49.94
2018-02-27T23:32:14.235Z,48.87
2018-02-27T23:34:48.462Z,49.73
2018-02-27T23:37:16.792Z,48.11
2018-02-27T23:39:45.870Z,48.84
2018-02-27T23:42:14.439Z,49.80
2018-02-27T23:44:42.779Z,49.93
2018-02-27T23:47:11.078Z,49.26
2018-02-27T23:49:39.394Z,49.69
2018-02-27T23:52:08.466Z,49.73
2018-02-27T23:54:36.753Z,49.30
2018-02-27T23:57:05.101Z,50.51
2018-02-27T23:59:33.448Z,50.13
